Terminal Aerodrome Forecast
Issued by NWS

Home | Current Version | Previous Version | Text Only | Print | Product List | Glossary On
Versions: 1 2 3 4 5 6 7 8 9 10 11 12 13 14 15 16 17
116
FTUS46 KLOX 282339
TAFPMD
TAF
KPMD 282339Z 2900/2924 06010KT P6SM SCT100 BKN150
     FM290300 20008KT P6SM SCT150 BKN200
     FM291000 VRB03KT P6SM SCT250
     FM292000 24006KT P6SM SCT250
     FM292200 25012KT P6SM SCT250=

USA.gov is the U.S. government's official web portal to all federal, state and local government web resources and services.